sensor_id;sensor_type;location;lat;lon;timestamp;P1;durP1;ratioP1;P2;durP2;ratioP2
20283;SDS011;10301;50.832;4.080;2023-05-10T00:00:39;15.35;;;8.35;;
20283;SDS011;10301;50.832;4.080;2023-05-10T00:03:05;19.08;;;8.63;;
20283;SDS011;10301;50.832;4.080;2023-05-10T00:05:31;16.48;;;8.80;;
20283;SDS011;10301;50.832;4.080;2023-05-10T00:07:57;17.52;;;9.20;;
20283;SDS011;10301;50.832;4.080;2023-05-10T00:10:23;18.08;;;8.77;;
20283;SDS011;10301;50.832;4.080;2023-05-10T00:12:49;18.50;;;8.70;;
20283;SDS011;10301;50.832;4.080;2023-05-10T00:15:14;16.15;;;8.57;;
20283;SDS011;10301;50.832;4.080;2023-05-10T00:17:40;19.42;;;8.50;;
20283;SDS011;10301;50.832;4.080;2023-05-10T00:20:06;18.88;;;8.65;;
20283;SDS011;10301;50.832;4.080;2023-05-10T00:22:32;23.52;;;11.00;;
20283;SDS011;10301;50.832;4.080;2023-05-10T00:24:58;18.15;;;8.75;;
20283;SDS011;10301;50.832;4.080;2023-05-10T00:27:24;17.60;;;9.50;;
20283;SDS011;10301;50.832;4.080;2023-05-10T00:29:49;16.90;;;9.23;;
20283;SDS011;10301;50.832;4.080;2023-05-10T00:32:15;23.08;;;9.57;;
20283;SDS011;10301;50.832;4.080;2023-05-10T00:34:41;18.08;;;9.48;;
20283;SDS011;10301;50.832;4.080;2023-05-10T00:37:07;20.58;;;9.35;;
20283;SDS011;10301;50.832;4.080;2023-05-10T00:39:33;19.17;;;9.35;;
20283;SDS011;10301;50.832;4.080;2023-05-10T00:41:58;24.38;;;9.77;;
20283;SDS011;10301;50.832;4.080;2023-05-10T00:44:25;21.63;;;10.77;;
20283;SDS011;10301;50.832;4.080;2023-05-10T00:46:51;24.52;;;11.15;;
20283;SDS011;10301;50.832;4.080;2023-05-10T00:49:17;20.35;;;9.65;;
20283;SDS011;10301;50.832;4.080;2023-05-10T00:51:43;22.33;;;10.50;;
20283;SDS011;10301;50.832;4.080;2023-05-10T00:54:14;19.95;;;9.40;;
20283;SDS011;10301;50.832;4.080;2023-05-10T00:56:40;16.65;;;9.30;;
20283;SDS011;10301;50.832;4.080;2023-05-10T00:59:07;19.35;;;10.32;;
20283;SDS011;10301;50.832;4.080;2023-05-10T01:01:33;19.75;;;10.20;;
20283;SDS011;10301;50.832;4.080;2023-05-10T01:04:00;18.95;;;9.77;;
20283;SDS011;10301;50.832;4.080;2023-05-10T01:06:26;21.10;;;10.65;;
20283;SDS011;10301;50.832;4.080;2023-05-10T01:08:52;21.00;;;10.02;;
20283;SDS011;10301;50.832;4.080;2023-05-10T01:11:18;20.20;;;9.65;;
20283;SDS011;10301;50.832;4.080;2023-05-10T01:13:44;22.63;;;9.95;;
20283;SDS011;10301;50.832;4.080;2023-05-10T01:16:16;23.45;;;10.73;;
20283;SDS011;10301;50.832;4.080;2023-05-10T01:18:42;17.92;;;10.27;;
20283;SDS011;10301;50.832;4.080;2023-05-10T01:32:29;26.50;;;10.80;;
20283;SDS011;10301;50.832;4.080;2023-05-10T01:35:05;18.42;;;10.20;;
20283;SDS011;10301;50.832;4.080;2023-05-10T01:37:45;24.70;;;10.88;;
20283;SDS011;10301;50.832;4.080;2023-05-10T01:40:32;21.40;;;11.60;;
20283;SDS011;10301;50.832;4.080;2023-05-10T01:43:03;24.13;;;11.82;;
20283;SDS011;10301;50.832;4.080;2023-05-10T01:48:26;23.85;;;11.95;;
20283;SDS011;10301;50.832;4.080;2023-05-10T01:50:53;26.55;;;12.40;;
20283;SDS011;10301;50.832;4.080;2023-05-10T01:53:21;25.23;;;12.30;;
20283;SDS011;10301;50.832;4.080;2023-05-10T01:55:49;26.20;;;12.45;;
20283;SDS011;10301;50.832;4.080;2023-05-10T01:58:22;27.67;;;11.98;;
20283;SDS011;10301;50.832;4.080;2023-05-10T02:00:53;28.25;;;12.07;;
20283;SDS011;10301;50.832;4.080;2023-05-10T02:03:20;24.45;;;12.13;;
20283;SDS011;10301;50.832;4.080;2023-05-10T02:05:48;23.35;;;11.63;;
20283;SDS011;10301;50.832;4.080;2023-05-10T02:08:15;25.60;;;12.98;;
20283;SDS011;10301;50.832;4.080;2023-05-10T02:10:44;26.23;;;12.07;;
20283;SDS011;10301;50.832;4.080;2023-05-10T02:13:11;25.65;;;12.77;;
20283;SDS011;10301;50.832;4.080;2023-05-10T02:15:39;24.15;;;11.80;;
20283;SDS011;10301;50.832;4.080;2023-05-10T02:18:06;24.52;;;11.73;;
20283;SDS011;10301;50.832;4.080;2023-05-10T02:20:34;24.20;;;10.73;;
20283;SDS011;10301;50.832;4.080;2023-05-10T02:23:01;23.08;;;11.20;;
20283;SDS011;10301;50.832;4.080;2023-05-10T02:25:28;24.90;;;10.90;;
20283;SDS011;10301;50.832;4.080;2023-05-10T02:27:55;23.58;;;11.13;;
20283;SDS011;10301;50.832;4.080;2023-05-10T02:30:22;23.23;;;11.65;;
20283;SDS011;10301;50.832;4.080;2023-05-10T02:32:50;24.55;;;11.32;;
20283;SDS011;10301;50.832;4.080;2023-05-10T02:35:16;22.77;;;11.68;;
20283;SDS011;10301;50.832;4.080;2023-05-10T02:37:42;22.00;;;11.07;;
20283;SDS011;10301;50.832;4.080;2023-05-10T02:40:10;21.98;;;11.55;;
20283;SDS011;10301;50.832;4.080;2023-05-10T02:42:37;26.52;;;12.63;;
20283;SDS011;10301;50.832;4.080;2023-05-10T02:45:07;20.02;;;11.88;;
20283;SDS011;10301;50.832;4.080;2023-05-10T02:47:37;22.80;;;11.65;;
20283;SDS011;10301;50.832;4.080;2023-05-10T02:50:03;24.63;;;12.27;;
20283;SDS011;10301;50.832;4.080;2023-05-10T02:52:30;24.63;;;12.23;;
20283;SDS011;10301;50.832;4.080;2023-05-10T02:55:25;23.90;;;11.15;;
20283;SDS011;10301;50.832;4.080;2023-05-10T02:57:59;24.90;;;12.45;;
20283;SDS011;10301;50.832;4.080;2023-05-10T03:00:25;25.23;;;12.50;;
20283;SDS011;10301;50.832;4.080;2023-05-10T03:02:52;30.58;;;15.07;;
20283;SDS011;10301;50.832;4.080;2023-05-10T03:05:18;23.25;;;12.40;;
20283;SDS011;10301;50.832;4.080;2023-05-10T03:07:44;28.00;;;13.48;;
20283;SDS011;10301;50.832;4.080;2023-05-10T03:10:10;27.92;;;12.63;;
20283;SDS011;10301;50.832;4.080;2023-05-10T03:15:31;25.85;;;13.55;;
20283;SDS011;10301;50.832;4.080;2023-05-10T03:20:49;30.98;;;14.93;;
20283;SDS011;10301;50.832;4.080;2023-05-10T03:25:49;24.67;;;14.95;;
20283;SDS011;10301;50.832;4.080;2023-05-10T03:28:16;29.58;;;14.95;;
20283;SDS011;10301;50.832;4.080;2023-05-10T03:30:43;33.08;;;15.88;;
20283;SDS011;10301;50.832;4.080;2023-05-10T03:33:12;33.22;;;16.33;;
20283;SDS011;10301;50.832;4.080;2023-05-10T03:35:39;28.73;;;15.35;;
20283;SDS011;10301;50.832;4.080;2023-05-10T03:38:04;33.13;;;16.20;;
20283;SDS011;10301;50.832;4.080;2023-05-10T03:40:30;32.67;;;16.42;;
20283;SDS011;10301;50.832;4.080;2023-05-10T03:42:57;35.58;;;15.38;;
20283;SDS011;10301;50.832;4.080;2023-05-10T03:45:23;30.75;;;15.52;;
20283;SDS011;10301;50.832;4.080;2023-05-10T03:47:49;31.40;;;16.73;;
20283;SDS011;10301;50.832;4.080;2023-05-10T03:50:14;33.05;;;17.42;;
20283;SDS011;10301;50.832;4.080;2023-05-10T03:52:40;31.50;;;17.40;;
20283;SDS011;10301;50.832;4.080;2023-05-10T03:55:06;28.48;;;16.25;;
20283;SDS011;10301;50.832;4.080;2023-05-10T03:57:32;32.25;;;17.48;;
20283;SDS011;10301;50.832;4.080;2023-05-10T03:59:58;32.22;;;16.40;;
20283;SDS011;10301;50.832;4.080;2023-05-10T04:02:24;32.47;;;17.02;;
20283;SDS011;10301;50.832;4.080;2023-05-10T04:04:50;29.65;;;16.23;;
20283;SDS011;10301;50.832;4.080;2023-05-10T04:07:16;33.08;;;16.52;;
20283;SDS011;10301;50.832;4.080;2023-05-10T04:09:41;33.10;;;17.33;;
20283;SDS011;10301;50.832;4.080;2023-05-10T04:12:07;41.10;;;18.25;;
20283;SDS011;10301;50.832;4.080;2023-05-10T04:14:33;34.22;;;16.70;;
20283;SDS011;10301;50.832;4.080;2023-05-10T04:16:58;33.60;;;15.95;;
20283;SDS011;10301;50.832;4.080;2023-05-10T04:19:28;34.13;;;15.48;;
20283;SDS011;10301;50.832;4.080;2023-05-10T04:21:55;30.08;;;15.75;;
20283;SDS011;10301;50.832;4.080;2023-05-10T04:24:20;32.42;;;15.27;;
20283;SDS011;10301;50.832;4.080;2023-05-10T04:26:46;32.95;;;15.73;;
20283;SDS011;10301;50.832;4.080;2023-05-10T04:29:12;31.42;;;13.40;;
20283;SDS011;10301;50.832;4.080;2023-05-10T04:31:37;32.28;;;14.07;;
20283;SDS011;10301;50.832;4.080;2023-05-10T04:34:03;29.38;;;13.38;;
20283;SDS011;10301;50.832;4.080;2023-05-10T04:36:29;30.42;;;13.88;;
20283;SDS011;10301;50.832;4.080;2023-05-10T04:38:54;31.08;;;14.63;;
20283;SDS011;10301;50.832;4.080;2023-05-10T04:41:20;28.65;;;14.73;;
20283;SDS011;10301;50.832;4.080;2023-05-10T04:43:46;27.88;;;13.15;;
20283;SDS011;10301;50.832;4.080;2023-05-10T04:46:14;31.08;;;14.18;;
20283;SDS011;10301;50.832;4.080;2023-05-10T04:48:39;30.20;;;14.18;;
20283;SDS011;10301;50.832;4.080;2023-05-10T04:51:05;28.55;;;13.30;;
20283;SDS011;10301;50.832;4.080;2023-05-10T04:53:31;30.20;;;13.25;;
20283;SDS011;10301;50.832;4.080;2023-05-10T04:55:57;27.00;;;13.73;;
20283;SDS011;10301;50.832;4.080;2023-05-10T04:58:23;27.92;;;13.13;;
20283;SDS011;10301;50.832;4.080;2023-05-10T05:00:48;26.80;;;13.15;;
20283;SDS011;10301;50.832;4.080;2023-05-10T05:03:14;27.33;;;13.60;;
20283;SDS011;10301;50.832;4.080;2023-05-10T05:05:41;35.70;;;13.85;;
20283;SDS011;10301;50.832;4.080;2023-05-10T05:08:06;29.08;;;14.50;;
20283;SDS011;10301;50.832;4.080;2023-05-10T05:10:32;38.28;;;15.70;;
20283;SDS011;10301;50.832;4.080;2023-05-10T05:12:58;32.22;;;16.13;;
20283;SDS011;10301;50.832;4.080;2023-05-10T05:15:23;35.00;;;15.80;;
20283;SDS011;10301;50.832;4.080;2023-05-10T05:17:49;32.90;;;14.88;;
20283;SDS011;10301;50.832;4.080;2023-05-10T05:20:15;37.38;;;15.52;;
20283;SDS011;10301;50.832;4.080;2023-05-10T05:22:40;36.47;;;16.70;;
20283;SDS011;10301;50.832;4.080;2023-05-10T05:25:06;39.63;;;18.88;;
20283;SDS011;10301;50.832;4.080;2023-05-10T05:27:32;33.63;;;17.80;;
20283;SDS011;10301;50.832;4.080;2023-05-10T05:29:58;41.75;;;18.65;;
20283;SDS011;10301;50.832;4.080;2023-05-10T05:32:24;43.70;;;18.45;;
20283;SDS011;10301;50.832;4.080;2023-05-10T05:34:50;38.33;;;17.80;;
20283;SDS011;10301;50.832;4.080;2023-05-10T05:37:16;38.55;;;19.58;;
20283;SDS011;10301;50.832;4.080;2023-05-10T05:39:43;44.53;;;18.27;;
20283;SDS011;10301;50.832;4.080;2023-05-10T05:42:10;44.08;;;19.05;;
20283;SDS011;10301;50.832;4.080;2023-05-10T05:44:37;52.60;;;19.00;;
20283;SDS011;10301;50.832;4.080;2023-05-10T05:47:03;43.97;;;19.45;;
20283;SDS011;10301;50.832;4.080;2023-05-10T05:49:29;48.70;;;18.67;;
20283;SDS011;10301;50.832;4.080;2023-05-10T05:51:58;48.97;;;20.33;;
20283;SDS011;10301;50.832;4.080;2023-05-10T05:54:25;44.38;;;21.60;;
20283;SDS011;10301;50.832;4.080;2023-05-10T05:56:53;43.63;;;19.90;;
20283;SDS011;10301;50.832;4.080;2023-05-10T05:59:20;46.90;;;20.30;;
20283;SDS011;10301;50.832;4.080;2023-05-10T06:01:46;46.25;;;19.00;;
20283;SDS011;10301;50.832;4.080;2023-05-10T06:04:11;43.90;;;20.38;;
20283;SDS011;10301;50.832;4.080;2023-05-10T06:06:37;43.15;;;19.48;;
20283;SDS011;10301;50.832;4.080;2023-05-10T06:09:03;47.42;;;20.75;;
20283;SDS011;10301;50.832;4.080;2023-05-10T06:11:29;44.08;;;19.10;;
20283;SDS011;10301;50.832;4.080;2023-05-10T06:13:57;49.25;;;20.42;;
20283;SDS011;10301;50.832;4.080;2023-05-10T06:16:23;42.58;;;19.45;;
20283;SDS011;10301;50.832;4.080;2023-05-10T06:18:48;45.33;;;19.15;;
20283;SDS011;10301;50.832;4.080;2023-05-10T06:21:14;47.38;;;19.17;;
20283;SDS011;10301;50.832;4.080;2023-05-10T06:23:41;48.55;;;20.15;;
20283;SDS011;10301;50.832;4.080;2023-05-10T06:26:06;41.85;;;18.08;;
20283;SDS011;10301;50.832;4.080;2023-05-10T06:28:32;42.45;;;17.15;;
20283;SDS011;10301;50.832;4.080;2023-05-10T06:30:58;43.75;;;17.63;;
20283;SDS011;10301;50.832;4.080;2023-05-10T06:33:24;46.53;;;17.73;;
20283;SDS011;10301;50.832;4.080;2023-05-10T06:35:50;46.70;;;19.08;;
20283;SDS011;10301;50.832;4.080;2023-05-10T06:38:16;38.25;;;17.35;;
20283;SDS011;10301;50.832;4.080;2023-05-10T06:40:42;38.88;;;16.90;;
20283;SDS011;10301;50.832;4.080;2023-05-10T06:43:08;37.17;;;16.65;;
20283;SDS011;10301;50.832;4.080;2023-05-10T06:45:34;41.00;;;16.33;;
20283;SDS011;10301;50.832;4.080;2023-05-10T06:48:00;36.72;;;15.27;;
20283;SDS011;10301;50.832;4.080;2023-05-10T06:50:26;38.33;;;16.05;;
20283;SDS011;10301;50.832;4.080;2023-05-10T06:52:51;37.05;;;16.52;;
20283;SDS011;10301;50.832;4.080;2023-05-10T06:55:17;37.63;;;16.20;;
20283;SDS011;10301;50.832;4.080;2023-05-10T06:57:43;37.58;;;15.15;;
20283;SDS011;10301;50.832;4.080;2023-05-10T07:00:08;32.67;;;14.43;;
20283;SDS011;10301;50.832;4.080;2023-05-10T07:02:35;28.25;;;13.57;;
20283;SDS011;10301;50.832;4.080;2023-05-10T07:05:01;36.25;;;13.20;;
20283;SDS011;10301;50.832;4.080;2023-05-10T07:07:27;30.13;;;12.30;;
20283;SDS011;10301;50.832;4.080;2023-05-10T07:09:52;30.40;;;13.50;;
20283;SDS011;10301;50.832;4.080;2023-05-10T07:12:18;29.63;;;12.05;;
20283;SDS011;10301;50.832;4.080;2023-05-10T07:14:44;28.13;;;13.02;;
20283;SDS011;10301;50.832;4.080;2023-05-10T07:17:10;25.40;;;10.95;;
20283;SDS011;10301;50.832;4.080;2023-05-10T07:19:36;22.02;;;10.50;;
20283;SDS011;10301;50.832;4.080;2023-05-10T07:22:02;29.58;;;11.15;;
20283;SDS011;10301;50.832;4.080;2023-05-10T07:24:27;27.92;;;11.60;;
20283;SDS011;10301;50.832;4.080;2023-05-10T07:26:53;24.77;;;12.23;;
20283;SDS011;10301;50.832;4.080;2023-05-10T07:29:19;27.92;;;12.15;;
20283;SDS011;10301;50.832;4.080;2023-05-10T07:31:44;32.05;;;12.75;;
20283;SDS011;10301;50.832;4.080;2023-05-10T07:34:10;29.20;;;12.30;;
20283;SDS011;10301;50.832;4.080;2023-05-10T07:36:36;28.05;;;13.10;;
20283;SDS011;10301;50.832;4.080;2023-05-10T07:39:01;21.08;;;11.25;;
20283;SDS011;10301;50.832;4.080;2023-05-10T07:41:28;27.02;;;11.50;;
20283;SDS011;10301;50.832;4.080;2023-05-10T07:43:53;28.95;;;11.07;;
20283;SDS011;10301;50.832;4.080;2023-05-10T07:46:19;23.42;;;11.20;;
20283;SDS011;10301;50.832;4.080;2023-05-10T07:48:45;22.85;;;11.00;;
20283;SDS011;10301;50.832;4.080;2023-05-10T07:51:11;22.98;;;10.00;;
20283;SDS011;10301;50.832;4.080;2023-05-10T07:53:37;17.75;;;9.43;;
20283;SDS011;10301;50.832;4.080;2023-05-10T07:58:55;17.05;;;8.35;;
20283;SDS011;10301;50.832;4.080;2023-05-10T08:01:21;22.02;;;9.13;;
20283;SDS011;10301;50.832;4.080;2023-05-10T08:03:47;13.88;;;7.35;;
20283;SDS011;10301;50.832;4.080;2023-05-10T08:06:14;14.75;;;7.82;;
20283;SDS011;10301;50.832;4.080;2023-05-10T08:08:40;16.23;;;8.20;;
20283;SDS011;10301;50.832;4.080;2023-05-10T08:11:07;17.67;;;9.25;;
20283;SDS011;10301;50.832;4.080;2023-05-10T08:13:32;16.20;;;8.63;;
20283;SDS011;10301;50.832;4.080;2023-05-10T08:15:58;16.13;;;8.73;;
20283;SDS011;10301;50.832;4.080;2023-05-10T08:18:24;16.55;;;8.52;;
20283;SDS011;10301;50.832;4.080;2023-05-10T08:20:50;17.45;;;9.25;;
20283;SDS011;10301;50.832;4.080;2023-05-10T08:23:15;16.15;;;9.77;;
20283;SDS011;10301;50.832;4.080;2023-05-10T08:25:41;18.98;;;9.20;;
20283;SDS011;10301;50.832;4.080;2023-05-10T08:28:07;16.15;;;9.20;;
20283;SDS011;10301;50.832;4.080;2023-05-10T08:30:32;14.43;;;7.85;;
20283;SDS011;10301;50.832;4.080;2023-05-10T08:32:58;16.05;;;8.88;;
20283;SDS011;10301;50.832;4.080;2023-05-10T08:35:24;19.02;;;9.30;;
20283;SDS011;10301;50.832;4.080;2023-05-10T08:37:50;15.02;;;8.15;;
20283;SDS011;10301;50.832;4.080;2023-05-10T08:40:16;15.45;;;8.85;;
20283;SDS011;10301;50.832;4.080;2023-05-10T08:42:47;18.13;;;8.68;;
20283;SDS011;10301;50.832;4.080;2023-05-10T08:45:23;17.75;;;7.90;;
20283;SDS011;10301;50.832;4.080;2023-05-10T08:47:52;15.63;;;8.32;;
20283;SDS011;10301;50.832;4.080;2023-05-10T08:50:19;17.40;;;8.77;;
20283;SDS011;10301;50.832;4.080;2023-05-10T08:52:46;15.60;;;8.65;;
20283;SDS011;10301;50.832;4.080;2023-05-10T08:55:17;16.15;;;8.57;;
20283;SDS011;10301;50.832;4.080;2023-05-10T08:57:43;17.10;;;8.45;;
20283;SDS011;10301;50.832;4.080;2023-05-10T09:00:09;23.33;;;9.50;;
20283;SDS011;10301;50.832;4.080;2023-05-10T09:02:36;17.63;;;8.60;;
20283;SDS011;10301;50.832;4.080;2023-05-10T09:05:03;20.63;;;8.80;;
20283;SDS011;10301;50.832;4.080;2023-05-10T09:07:29;22.63;;;8.73;;
20283;SDS011;10301;50.832;4.080;2023-05-10T09:09:55;14.75;;;7.38;;
20283;SDS011;10301;50.832;4.080;2023-05-10T09:12:22;16.42;;;8.65;;
20283;SDS011;10301;50.832;4.080;2023-05-10T09:14:48;17.65;;;8.68;;
20283;SDS011;10301;50.832;4.080;2023-05-10T09:17:17;17.38;;;8.98;;
20283;SDS011;10301;50.832;4.080;2023-05-10T09:19:44;15.95;;;9.13;;
20283;SDS011;10301;50.832;4.080;2023-05-10T09:22:10;19.10;;;9.20;;
20283;SDS011;10301;50.832;4.080;2023-05-10T09:24:36;19.95;;;8.60;;
20283;SDS011;10301;50.832;4.080;2023-05-10T09:27:07;20.65;;;9.88;;
20283;SDS011;10301;50.832;4.080;2023-05-10T09:29:42;18.25;;;8.50;;
20283;SDS011;10301;50.832;4.080;2023-05-10T09:32:08;17.60;;;9.45;;
20283;SDS011;10301;50.832;4.080;2023-05-10T09:34:34;17.65;;;10.00;;
20283;SDS011;10301;50.832;4.080;2023-05-10T09:37:04;13.18;;;8.32;;
20283;SDS011;10301;50.832;4.080;2023-05-10T09:39:31;14.00;;;8.68;;
20283;SDS011;10301;50.832;4.080;2023-05-10T09:42:02;17.48;;;9.80;;
20283;SDS011;10301;50.832;4.080;2023-05-10T09:44:32;15.13;;;9.30;;
20283;SDS011;10301;50.832;4.080;2023-05-10T09:46:58;16.48;;;8.70;;
20283;SDS011;10301;50.832;4.080;2023-05-10T09:49:25;14.10;;;8.93;;
20283;SDS011;10301;50.832;4.080;2023-05-10T09:52:04;16.85;;;8.50;;
20283;SDS011;10301;50.832;4.080;2023-05-10T09:54:31;16.98;;;8.65;;
20283;SDS011;10301;50.832;4.080;2023-05-10T09:56:58;14.38;;;8.23;;
20283;SDS011;10301;50.832;4.080;2023-05-10T09:59:27;16.13;;;9.68;;
20283;SDS011;10301;50.832;4.080;2023-05-10T10:01:57;17.73;;;9.15;;
20283;SDS011;10301;50.832;4.080;2023-05-10T10:04:24;18.92;;;9.50;;
20283;SDS011;10301;50.832;4.080;2023-05-10T10:07:00;15.07;;;8.63;;
20283;SDS011;10301;50.832;4.080;2023-05-10T10:09:30;15.98;;;8.90;;
20283;SDS011;10301;50.832;4.080;2023-05-10T10:11:56;16.98;;;9.43;;
20283;SDS011;10301;50.832;4.080;2023-05-10T10:14:22;17.08;;;8.40;;
20283;SDS011;10301;50.832;4.080;2023-05-10T10:16:51;18.23;;;9.73;;
20283;SDS011;10301;50.832;4.080;2023-05-10T10:19:20;16.48;;;9.25;;
20283;SDS011;10301;50.832;4.080;2023-05-10T10:21:47;16.70;;;8.95;;
20283;SDS011;10301;50.832;4.080;2023-05-10T10:24:14;18.15;;;9.68;;
20283;SDS011;10301;50.832;4.080;2023-05-10T10:26:40;19.05;;;9.38;;
20283;SDS011;10301;50.832;4.080;2023-05-10T10:36:48;20.60;;;10.25;;
20283;SDS011;10301;50.832;4.080;2023-05-10T10:39:14;19.10;;;9.70;;
20283;SDS011;10301;50.832;4.080;2023-05-10T10:41:51;16.65;;;9.02;;
20283;SDS011;10301;50.832;4.080;2023-05-10T10:52:24;20.40;;;10.10;;
20283;SDS011;10301;50.832;4.080;2023-05-10T10:57:23;15.63;;;9.27;;
20283;SDS011;10301;50.832;4.080;2023-05-10T10:59:51;16.55;;;10.15;;
20283;SDS011;10301;50.832;4.080;2023-05-10T11:02:42;15.23;;;9.05;;
20283;SDS011;10301;50.832;4.080;2023-05-10T11:05:25;19.70;;;10.63;;
20283;SDS011;10301;50.832;4.080;2023-05-10T11:07:57;14.00;;;9.25;;
20283;SDS011;10301;50.832;4.080;2023-05-10T11:10:24;14.95;;;8.90;;
20283;SDS011;10301;50.832;4.080;2023-05-10T11:15:17;14.27;;;8.68;;
20283;SDS011;10301;50.832;4.080;2023-05-10T11:17:42;15.23;;;9.80;;
20283;SDS011;10301;50.832;4.080;2023-05-10T11:20:09;17.85;;;9.93;;
20283;SDS011;10301;50.832;4.080;2023-05-10T11:22:51;17.73;;;10.25;;
20283;SDS011;10301;50.832;4.080;2023-05-10T11:25:17;16.02;;;9.82;;
20283;SDS011;10301;50.832;4.080;2023-05-10T11:27:43;17.85;;;10.63;;
20283;SDS011;10301;50.832;4.080;2023-05-10T11:30:10;15.57;;;9.70;;
20283;SDS011;10301;50.832;4.080;2023-05-10T11:32:39;19.35;;;9.73;;
20283;SDS011;10301;50.832;4.080;2023-05-10T11:35:09;17.40;;;10.45;;
20283;SDS011;10301;50.832;4.080;2023-05-10T11:37:36;18.92;;;11.40;;
20283;SDS011;10301;50.832;4.080;2023-05-10T11:40:07;15.75;;;10.63;;
20283;SDS011;10301;50.832;4.080;2023-05-10T11:42:35;19.70;;;11.85;;
20283;SDS011;10301;50.832;4.080;2023-05-10T11:45:05;19.40;;;11.50;;
20283;SDS011;10301;50.832;4.080;2023-05-10T11:47:31;16.27;;;10.85;;
20283;SDS011;10301;50.832;4.080;2023-05-10T11:49:57;16.63;;;10.70;;
20283;SDS011;10301;50.832;4.080;2023-05-10T11:52:23;20.55;;;10.80;;
20283;SDS011;10301;50.832;4.080;2023-05-10T11:54:52;18.23;;;11.65;;
20283;SDS011;10301;50.832;4.080;2023-05-10T11:57:19;17.67;;;10.80;;
20283;SDS011;10301;50.832;4.080;2023-05-10T11:59:46;17.13;;;11.55;;
20283;SDS011;10301;50.832;4.080;2023-05-10T12:02:13;16.42;;;10.75;;
20283;SDS011;10301;50.832;4.080;2023-05-10T12:04:39;17.73;;;11.05;;
20283;SDS011;10301;50.832;4.080;2023-05-10T12:07:05;17.48;;;10.85;;
20283;SDS011;10301;50.832;4.080;2023-05-10T12:09:31;16.35;;;10.45;;
20283;SDS011;10301;50.832;4.080;2023-05-10T12:11:56;17.25;;;10.23;;
20283;SDS011;10301;50.832;4.080;2023-05-10T12:14:22;15.27;;;9.77;;
20283;SDS011;10301;50.832;4.080;2023-05-10T12:16:49;16.40;;;10.85;;
20283;SDS011;10301;50.832;4.080;2023-05-10T12:19:18;17.15;;;10.30;;
20283;SDS011;10301;50.832;4.080;2023-05-10T12:21:45;15.23;;;10.20;;
20283;SDS011;10301;50.832;4.080;2023-05-10T12:24:11;18.15;;;10.65;;
20283;SDS011;10301;50.832;4.080;2023-05-10T12:26:37;16.35;;;10.30;;
20283;SDS011;10301;50.832;4.080;2023-05-10T12:31:51;15.98;;;10.30;;
20283;SDS011;10301;50.832;4.080;2023-05-10T12:36:56;18.58;;;10.57;;
20283;SDS011;10301;50.832;4.080;2023-05-10T12:39:21;19.00;;;10.85;;
20283;SDS011;10301;50.832;4.080;2023-05-10T12:41:48;16.27;;;10.52;;
20283;SDS011;10301;50.832;4.080;2023-05-10T12:44:14;19.38;;;11.07;;
20283;SDS011;10301;50.832;4.080;2023-05-10T12:46:40;16.00;;;10.60;;
20283;SDS011;10301;50.832;4.080;2023-05-10T12:49:05;15.90;;;10.95;;
20283;SDS011;10301;50.832;4.080;2023-05-10T12:51:31;16.08;;;10.40;;
20283;SDS011;10301;50.832;4.080;2023-05-10T12:53:57;14.73;;;10.07;;
20283;SDS011;10301;50.832;4.080;2023-05-10T12:56:22;18.27;;;11.32;;
20283;SDS011;10301;50.832;4.080;2023-05-10T12:58:48;14.77;;;10.35;;
20283;SDS011;10301;50.832;4.080;2023-05-10T13:01:14;16.98;;;10.48;;
20283;SDS011;10301;50.832;4.080;2023-05-10T13:03:39;15.55;;;10.35;;
20283;SDS011;10301;50.832;4.080;2023-05-10T13:06:05;15.63;;;10.52;;
20283;SDS011;10301;50.832;4.080;2023-05-10T13:08:31;17.92;;;11.07;;
20283;SDS011;10301;50.832;4.080;2023-05-10T13:11:01;17.38;;;10.05;;
20283;SDS011;10301;50.832;4.080;2023-05-10T13:13:27;16.58;;;10.27;;
20283;SDS011;10301;50.832;4.080;2023-05-10T13:15:53;15.65;;;10.05;;
20283;SDS011;10301;50.832;4.080;2023-05-10T13:18:18;16.58;;;10.63;;
20283;SDS011;10301;50.832;4.080;2023-05-10T13:20:44;16.08;;;10.15;;
20283;SDS011;10301;50.832;4.080;2023-05-10T13:23:10;18.60;;;11.93;;
20283;SDS011;10301;50.832;4.080;2023-05-10T13:25:36;17.05;;;10.90;;
20283;SDS011;10301;50.832;4.080;2023-05-10T13:28:02;20.23;;;11.38;;
20283;SDS011;10301;50.832;4.080;2023-05-10T13:30:27;17.13;;;10.93;;
20283;SDS011;10301;50.832;4.080;2023-05-10T13:32:54;18.15;;;11.48;;
20283;SDS011;10301;50.832;4.080;2023-05-10T13:35:19;17.77;;;11.35;;
20283;SDS011;10301;50.832;4.080;2023-05-10T13:37:45;17.05;;;11.60;;
20283;SDS011;10301;50.832;4.080;2023-05-10T13:40:11;16.73;;;12.18;;
20283;SDS011;10301;50.832;4.080;2023-05-10T13:42:37;18.75;;;12.13;;
20283;SDS011;10301;50.832;4.080;2023-05-10T13:45:03;18.88;;;11.18;;
20283;SDS011;10301;50.832;4.080;2023-05-10T13:47:29;18.75;;;13.23;;
20283;SDS011;10301;50.832;4.080;2023-05-10T13:49:54;16.33;;;10.90;;
20283;SDS011;10301;50.832;4.080;2023-05-10T13:52:21;19.17;;;11.13;;
20283;SDS011;10301;50.832;4.080;2023-05-10T13:54:46;19.50;;;12.38;;
20283;SDS011;10301;50.832;4.080;2023-05-10T13:57:12;17.63;;;11.18;;
20283;SDS011;10301;50.832;4.080;2023-05-10T13:59:38;19.00;;;11.57;;
20283;SDS011;10301;50.832;4.080;2023-05-10T14:02:04;20.17;;;11.18;;
20283;SDS011;10301;50.832;4.080;2023-05-10T14:04:31;16.27;;;10.80;;
20283;SDS011;10301;50.832;4.080;2023-05-10T14:06:57;21.60;;;12.13;;
20283;SDS011;10301;50.832;4.080;2023-05-10T14:09:22;18.73;;;11.75;;
20283;SDS011;10301;50.832;4.080;2023-05-10T14:11:48;18.17;;;11.27;;
20283;SDS011;10301;50.832;4.080;2023-05-10T14:14:14;18.45;;;11.57;;
20283;SDS011;10301;50.832;4.080;2023-05-10T14:16:43;18.58;;;12.10;;
20283;SDS011;10301;50.832;4.080;2023-05-10T14:19:09;16.23;;;11.00;;
20283;SDS011;10301;50.832;4.080;2023-05-10T14:21:35;19.50;;;12.30;;
20283;SDS011;10301;50.832;4.080;2023-05-10T14:24:01;19.10;;;12.95;;
20283;SDS011;10301;50.832;4.080;2023-05-10T14:26:27;18.98;;;12.57;;
20283;SDS011;10301;50.832;4.080;2023-05-10T14:28:53;17.10;;;8.35;;
20283;SDS011;10301;50.832;4.080;2023-05-10T14:31:18;10.40;;;6.85;;
20283;SDS011;10301;50.832;4.080;2023-05-10T14:33:45;12.35;;;6.93;;
20283;SDS011;10301;50.832;4.080;2023-05-10T14:36:12;10.45;;;5.85;;
20283;SDS011;10301;50.832;4.080;2023-05-10T14:38:38;11.20;;;6.57;;
20283;SDS011;10301;50.832;4.080;2023-05-10T14:41:05;19.77;;;7.00;;
20283;SDS011;10301;50.832;4.080;2023-05-10T14:43:31;16.55;;;7.72;;
20283;SDS011;10301;50.832;4.080;2023-05-10T14:45:56;12.70;;;6.63;;
20283;SDS011;10301;50.832;4.080;2023-05-10T14:48:22;13.38;;;6.68;;
20283;SDS011;10301;50.832;4.080;2023-05-10T14:50:48;15.13;;;7.65;;
20283;SDS011;10301;50.832;4.080;2023-05-10T14:53:14;16.23;;;6.45;;
20283;SDS011;10301;50.832;4.080;2023-05-10T14:55:40;18.80;;;6.35;;
20283;SDS011;10301;50.832;4.080;2023-05-10T14:58:06;12.75;;;6.10;;
20283;SDS011;10301;50.832;4.080;2023-05-10T15:00:32;10.55;;;5.30;;
20283;SDS011;10301;50.832;4.080;2023-05-10T15:02:57;12.20;;;5.63;;
20283;SDS011;10301;50.832;4.080;2023-05-10T15:05:23;13.77;;;6.45;;
20283;SDS011;10301;50.832;4.080;2023-05-10T15:07:49;10.20;;;5.18;;
20283;SDS011;10301;50.832;4.080;2023-05-10T15:10:15;12.05;;;5.68;;
20283;SDS011;10301;50.832;4.080;2023-05-10T15:12:41;13.57;;;5.15;;
20283;SDS011;10301;50.832;4.080;2023-05-10T15:15:06;14.98;;;6.03;;